createdAt,value
2023-03-17T00:00:47.040Z,98046.69
2023-03-17T00:03:25.631Z,98050.16
2023-03-17T00:05:55.053Z,98051.77
2023-03-17T00:08:27.297Z,98055.51
2023-03-17T00:10:55.892Z,98052.06
2023-03-17T00:13:23.557Z,98056.84
2023-03-17T00:15:56.481Z,98059.23
2023-03-17T00:18:24.658Z,98054.36
2023-03-17T00:20:52.382Z,98051.39
2023-03-17T00:23:23.827Z,98054.87
2023-03-17T00:25:52.918Z,98050.83
2023-03-17T00:28:25.003Z,98052.97
2023-03-17T00:30:59.197Z,98050.03
2023-03-17T00:33:32.526Z,98050.53
2023-03-17T00:36:00.761Z,98051.61
2023-03-17T00:38:29.113Z,98054.75
2023-03-17T00:40:58.884Z,98058.47
2023-03-17T00:43:26.912Z,98058.70
2023-03-17T00:45:54.831Z,98060.80
2023-03-17T00:48:23.709Z,98058.94
2023-03-17T00:50:51.377Z,98066.12
2023-03-17T00:53:22.663Z,98065.28
2023-03-17T00:55:50.396Z,98063.14
2023-03-17T00:58:31.270Z,98062.61
2023-03-17T01:00:59.400Z,98059.63
2023-03-17T01:03:28.198Z,98064.11
2023-03-17T01:05:57.366Z,98061.66
2023-03-17T01:08:26.513Z,98059.22
2023-03-17T01:10:54.382Z,98062.36
2023-03-17T01:13:22.583Z,98061.78
2023-03-17T01:15:51.536Z,98060.95
2023-03-17T01:18:22.173Z,98062.00
2023-03-17T01:20:52.767Z,98064.64
2023-03-17T01:23:21.614Z,98059.80
2023-03-17T01:25:49.684Z,98064.06
2023-03-17T01:28:20.176Z,98057.61
2023-03-17T01:30:48.734Z,98062.91
2023-03-17T01:33:18.565Z,98066.65
2023-03-17T01:35:46.638Z,98068.21
2023-03-17T01:38:15.409Z,98069.27
2023-03-17T01:40:50.400Z,98070.03
2023-03-17T01:43:28.826Z,98068.97
2023-03-17T01:46:26.890Z,98074.57
2023-03-17T01:49:18.873Z,98078.58
2023-03-17T01:52:09.514Z,98075.37
2023-03-17T01:54:58.666Z,98075.86
2023-03-17T01:57:45.199Z,98076.88
2023-03-17T02:00:18.128Z,98084.09
2023-03-17T02:02:53.526Z,98081.73
2023-03-17T02:05:25.496Z,98086.49
2023-03-17T02:07:55.177Z,98079.28
2023-03-17T02:10:28.131Z,98089.95
2023-03-17T02:13:01.780Z,98083.28
2023-03-17T02:15:38.692Z,98085.95
2023-03-17T02:18:07.041Z,98089.65
2023-03-17T02:20:42.087Z,98094.45
2023-03-17T02:23:10.289Z,98096.80
2023-03-17T02:25:39.310Z,98098.39
2023-03-17T02:28:18.548Z,98106.09
2023-03-17T02:30:46.344Z,98104.48
2023-03-17T02:33:16.076Z,98103.16
2023-03-17T02:35:43.819Z,98103.16
2023-03-17T02:38:12.881Z,98103.73
2023-03-17T02:40:41.436Z,98104.00
2023-03-17T02:43:15.171Z,98109.06
2023-03-17T02:45:44.338Z,98119.95
2023-03-17T02:48:22.586Z,98114.27
2023-03-17T02:50:51.562Z,98121.14
2023-03-17T02:53:21.826Z,98127.55
2023-03-17T02:55:50.292Z,98130.25
2023-03-17T02:58:19.164Z,98127.86
2023-03-17T03:00:54.444Z,98126.75
2023-03-17T03:03:23.316Z,98135.02
2023-03-17T03:05:52.486Z,98138.97
2023-03-17T03:08:21.507Z,98140.30
2023-03-17T03:10:49.182Z,98142.16
2023-03-17T03:13:16.960Z,98135.97
2023-03-17T03:15:44.685Z,98141.30
2023-03-17T03:18:12.616Z,98148.25
2023-03-17T03:20:43.915Z,98150.91
2023-03-17T03:23:13.233Z,98149.30
2023-03-17T03:25:42.059Z,98143.39
2023-03-17T03:28:10.065Z,98151.39
2023-03-17T03:30:38.052Z,98156.98
2023-03-17T03:33:06.275Z,98167.91
2023-03-17T03:35:34.824Z,98164.12
2023-03-17T03:38:03.019Z,98167.33
2023-03-17T03:40:31.146Z,98165.24
2023-03-17T03:42:59.191Z,98168.94
2023-03-17T03:45:26.846Z,98161.73
2023-03-17T03:47:55.042Z,98168.92
2023-03-17T03:50:23.622Z,98174.78
2023-03-17T03:52:51.414Z,98174.78
2023-03-17T03:55:19.479Z,98174.46
2023-03-17T03:57:47.295Z,98179.20
2023-03-17T04:00:17.111Z,98181.27
2023-03-17T04:02:46.204Z,98187.94
2023-03-17T04:05:18.224Z,98193.74
2023-03-17T04:07:47.499Z,98195.30
2023-03-17T04:10:16.418Z,98202.27
2023-03-17T04:12:44.191Z,98198.30
2023-03-17T04:15:15.605Z,98204.43
2023-03-17T04:17:44.223Z,98205.77
2023-03-17T04:20:13.892Z,98210.82
2023-03-17T04:22:42.493Z,98209.96
2023-03-17T04:25:13.851Z,98213.96
2023-03-17T04:27:42.755Z,98219.30
2023-03-17T04:30:14.089Z,98224.13
2023-03-17T04:32:41.846Z,98220.35
2023-03-17T04:35:13.927Z,98219.80
2023-03-17T04:37:41.970Z,98226.67
2023-03-17T04:40:12.024Z,98231.42
2023-03-17T04:42:40.212Z,98230.86
2023-03-17T04:45:12.234Z,98228.15
2023-03-17T04:47:40.144Z,98238.55
2023-03-17T04:50:09.830Z,98232.73
2023-03-17T04:52:38.311Z,98231.89
2023-03-17T04:55:07.786Z,98232.95
2023-03-17T04:57:36.673Z,98229.73
2023-03-17T05:00:07.012Z,98232.92
2023-03-17T05:02:34.876Z,98235.06
2023-03-17T05:05:02.965Z,98231.34
2023-03-17T05:07:32.821Z,98228.75
2023-03-17T05:10:00.372Z,98235.74
2023-03-17T05:12:28.290Z,98237.35
2023-03-17T05:14:56.080Z,98229.13
2023-03-17T05:17:23.763Z,98240.40
2023-03-17T05:19:51.493Z,98235.92
2023-03-17T05:22:19.254Z,98233.86
2023-03-17T05:24:47.072Z,98233.66
2023-03-17T05:27:15.045Z,98230.28
2023-03-17T05:29:42.675Z,98234.92
2023-03-17T05:32:10.299Z,98232.66
2023-03-17T05:34:37.960Z,98228.97
2023-03-17T05:37:07.116Z,98230.16
2023-03-17T05:39:34.938Z,98230.79
2023-03-17T05:42:02.867Z,98228.50
2023-03-17T05:44:30.548Z,98229.90
2023-03-17T05:46:59.358Z,98231.55
2023-03-17T05:49:27.929Z,98238.02
2023-03-17T05:51:55.941Z,98240.27
2023-03-17T05:54:23.733Z,98243.34
2023-03-17T05:56:51.839Z,98242.59
2023-03-17T05:59:20.205Z,98243.98
2023-03-17T06:01:47.973Z,98238.20
2023-03-17T06:04:15.880Z,98236.96
2023-03-17T06:06:43.496Z,98242.94
2023-03-17T06:09:10.941Z,98241.16
2023-03-17T06:11:38.564Z,98239.95
2023-03-17T06:14:06.826Z,98241.91
2023-03-17T06:16:34.393Z,98243.86
2023-03-17T06:19:02.029Z,98242.38
2023-03-17T06:21:29.730Z,98244.89
2023-03-17T06:23:57.220Z,98243.92
2023-03-17T06:26:26.682Z,98242.69
2023-03-17T06:28:54.506Z,98245.98
2023-03-17T06:31:22.970Z,98248.48
2023-03-17T06:33:51.113Z,98245.09
2023-03-17T06:36:18.844Z,98247.58
2023-03-17T06:38:46.618Z,98249.23
2023-03-17T06:41:14.491Z,98243.36
2023-03-17T06:43:42.151Z,98247.98
2023-03-17T06:46:10.045Z,98244.83
2023-03-17T06:48:37.865Z,98248.36
2023-03-17T06:51:06.692Z,98253.78
2023-03-17T06:53:34.336Z,98244.98
2023-03-17T06:56:04.354Z,98246.63
2023-03-17T06:58:32.746Z,98256.30
2023-03-17T07:01:00.496Z,98253.39
2023-03-17T07:03:28.483Z,98250.19
2023-03-17T07:05:56.200Z,98250.45
2023-03-17T07:08:23.854Z,98248.86
2023-03-17T07:10:56.971Z,98252.59
2023-03-17T07:13:25.352Z,98254.99
2023-03-17T07:15:55.363Z,98254.42
2023-03-17T07:18:23.139Z,98255.48
2023-03-17T07:20:50.772Z,98252.44
2023-03-17T07:23:23.291Z,98253.47
2023-03-17T07:25:52.121Z,98244.55
2023-03-17T07:28:21.254Z,98246.88
2023-03-17T07:30:49.654Z,98244.10
2023-03-17T07:33:20.477Z,98250.45
2023-03-17T07:35:49.395Z,98249.01
2023-03-17T07:38:18.612Z,98252.41
2023-03-17T07:40:48.679Z,98259.31
2023-03-17T07:43:17.164Z,98248.93
2023-03-17T07:45:46.547Z,98252.64
2023-03-17T07:48:14.217Z,98248.84
2023-03-17T07:50:42.553Z,98253.15
2023-03-17T07:53:10.420Z,98250.68
2023-03-17T07:55:38.391Z,98255.41
2023-03-17T07:58:07.049Z,98250.47
2023-03-17T08:00:35.399Z,98247.66
2023-03-17T08:03:10.441Z,98255.05
2023-03-17T08:05:34.022Z,98247.64
2023-03-17T08:08:01.732Z,98248.53
2023-03-17T08:10:29.957Z,98246.14
2023-03-17T08:12:58.221Z,98247.65
2023-03-17T08:15:26.028Z,98241.83
2023-03-17T08:17:53.774Z,98242.54
2023-03-17T08:20:21.590Z,98236.76
2023-03-17T08:22:49.208Z,98236.38
2023-03-17T08:25:17.293Z,98232.42
2023-03-17T08:27:44.976Z,98233.81
2023-03-17T08:30:14.105Z,98229.77
2023-03-17T08:32:42.520Z,98231.72
2023-03-17T08:35:15.665Z,98234.75
2023-03-17T08:37:44.249Z,98227.17
2023-03-17T08:40:17.413Z,98224.56
2023-03-17T08:42:47.342Z,98227.17
2023-03-17T08:45:17.675Z,98227.17
2023-03-17T08:47:47.061Z,98237.98
2023-03-17T08:50:21.944Z,98232.58
2023-03-17T08:52:51.662Z,98225.53
2023-03-17T08:55:19.564Z,98229.02
2023-03-17T08:57:48.143Z,98224.63
2023-03-17T09:00:19.865Z,98229.02
2023-03-17T09:02:49.351Z,98233.23
2023-03-17T09:05:18.945Z,98228.41
2023-03-17T09:07:49.103Z,98225.53
2023-03-17T09:10:18.832Z,98220.73
2023-03-17T09:12:46.975Z,98219.05
2023-03-17T09:15:15.040Z,98219.45
2023-03-17T09:17:43.644Z,98214.75
2023-03-17T09:20:13.252Z,98218.13
2023-03-17T09:22:40.959Z,98217.41
2023-03-17T09:25:09.423Z,98212.95
2023-03-17T09:27:37.091Z,98210.78
2023-03-17T09:30:06.193Z,98209.99
2023-03-17T09:32:33.960Z,98216.34
2023-03-17T09:35:01.993Z,98207.81
2023-03-17T09:37:30.591Z,98206.45
2023-03-17T09:39:58.261Z,98206.78
2023-03-17T09:42:43.288Z,98208.03
2023-03-17T09:45:21.982Z,98202.83
2023-03-17T09:48:09.757Z,98212.73
2023-03-17T09:50:51.605Z,98205.38
2023-03-17T09:53:31.973Z,98210.94
2023-03-17T09:56:04.431Z,98208.54
2023-03-17T09:58:33.984Z,98207.88
2023-03-17T10:01:04.863Z,98207.67
2023-03-17T10:03:34.343Z,98208.13
2023-03-17T10:06:25.616Z,98205.77
2023-03-17T10:09:27.051Z,98205.53
2023-03-17T10:12:12.001Z,98201.02
2023-03-17T10:15:06.451Z,98196.56
2023-03-17T10:17:40.953Z,98198.61
2023-03-17T10:20:20.537Z,98186.55
2023-03-17T10:23:01.272Z,98182.67
2023-03-17T10:25:33.542Z,98176.88
2023-03-17T10:28:13.991Z,98177.51
2023-03-17T10:30:43.422Z,98169.99
2023-03-17T10:33:12.065Z,98172.59
2023-03-17T10:35:40.031Z,98168.89
2023-03-17T10:38:23.041Z,98169.08
2023-03-17T10:41:02.623Z,98163.22
2023-03-17T10:43:41.532Z,98150.55
2023-03-17T10:46:23.899Z,98154.34
2023-03-17T10:48:57.842Z,98150.09
2023-03-17T10:51:31.426Z,98149.67
2023-03-17T10:54:09.370Z,98150.70
2023-03-17T10:56:41.759Z,98146.91
2023-03-17T11:02:00.947Z,98136.45
2023-03-17T11:04:39.269Z,98144.62
2023-03-17T11:07:16.912Z,98131.66
2023-03-17T11:09:50.198Z,98133.30
2023-03-17T11:12:38.069Z,98125.80
2023-03-17T11:15:16.138Z,98127.11
2023-03-17T11:18:01.152Z,98120.02
2023-03-17T11:20:49.588Z,98124.98
2023-03-17T11:23:43.820Z,98116.00
2023-03-17T11:26:58.582Z,98110.45
2023-03-17T11:30:00.730Z,98112.19
2023-03-17T11:32:41.019Z,98109.27
2023-03-17T11:35:31.005Z,98101.30
2023-03-17T11:38:24.537Z,98101.67
2023-03-17T11:41:16.722Z,98103.44
2023-03-17T11:44:22.203Z,98095.11
2023-03-17T11:47:01.477Z,98092.53
2023-03-17T11:49:38.384Z,98091.23
2023-03-17T11:52:21.473Z,98097.48
2023-03-17T11:55:27.542Z,98087.27
2023-03-17T11:58:11.011Z,98091.33
2023-03-17T12:00:52.215Z,98077.18
2023-03-17T12:03:38.421Z,98077.05
2023-03-17T12:06:15.077Z,98079.16
2023-03-17T12:09:00.062Z,98072.13
2023-03-17T12:11:31.328Z,98067.09
2023-03-17T12:14:07.347Z,98064.44
2023-03-17T12:16:49.578Z,98061.30
2023-03-17T12:19:27.915Z,98061.53
2023-03-17T12:22:10.276Z,98058.83
2023-03-17T12:24:50.037Z,98058.55
2023-03-17T12:27:29.394Z,98046.95
2023-03-17T12:30:06.011Z,98048.30
2023-03-17T12:32:45.493Z,98050.16
2023-03-17T12:35:28.659Z,98046.84
2023-03-17T12:38:00.824Z,98040.95
2023-03-17T12:40:45.925Z,98044.95
2023-03-17T12:43:36.766Z,98040.51
2023-03-17T12:46:37.405Z,98038.23
2023-03-17T12:49:28.489Z,98040.95
2023-03-17T12:52:31.547Z,98029.81
2023-03-17T12:55:03.428Z,98039.91
2023-03-17T12:57:41.295Z,98033.41
2023-03-17T13:00:29.186Z,98030.88
2023-03-17T13:03:17.126Z,98035.56
2023-03-17T13:05:52.389Z,98026.81
2023-03-17T13:08:37.552Z,98023.48
2023-03-17T13:11:40.320Z,98030.60
2023-03-17T13:14:35.704Z,98025.27
2023-03-17T13:17:19.803Z,98017.16
2023-03-17T13:20:11.445Z,98009.35
2023-03-17T13:22:43.870Z,98014.50
2023-03-17T13:25:40.956Z,98010.39
2023-03-17T13:28:16.889Z,98012.61
2023-03-17T13:31:20.569Z,98005.03
2023-03-17T13:33:52.740Z,98004.41
2023-03-17T13:36:59.889Z,97993.86
2023-03-17T13:39:59.017Z,97989.27
2023-03-17T13:42:35.082Z,97990.48
2023-03-17T13:45:38.053Z,97992.97
2023-03-17T13:48:37.735Z,97994.27
2023-03-17T13:51:15.238Z,97995.11
2023-03-17T13:53:56.922Z,97986.81
2023-03-17T13:56:45.091Z,97984.00
2023-03-17T13:59:21.485Z,97982.08
2023-03-17T14:02:03.996Z,97982.72
2023-03-17T14:04:44.251Z,97981.80
2023-03-17T14:07:16.743Z,97980.83
2023-03-17T14:09:44.986Z,97983.28
2023-03-17T14:12:30.032Z,97978.23
2023-03-17T14:15:18.421Z,97985.48
2023-03-17T14:17:51.812Z,97987.55
2023-03-17T14:20:23.767Z,97982.61
2023-03-17T14:23:01.478Z,97982.61
2023-03-17T14:25:36.665Z,97980.95
2023-03-17T14:28:11.446Z,97979.44
2023-03-17T14:30:39.228Z,97979.62
2023-03-17T14:33:23.187Z,97976.09
2023-03-17T14:35:52.460Z,97973.08
2023-03-17T14:38:31.202Z,97969.08
2023-03-17T14:41:06.530Z,97963.73
2023-03-17T14:43:36.144Z,97963.66
2023-03-17T14:46:07.587Z,97965.50
2023-03-17T14:48:39.022Z,97961.48
2023-03-17T14:51:11.799Z,97970.79
2023-03-17T14:53:42.768Z,97963.91
2023-03-17T14:56:10.908Z,97970.38
2023-03-17T14:58:44.544Z,97966.98
2023-03-17T15:01:19.662Z,97970.95
2023-03-17T15:04:18.386Z,97961.45
2023-03-17T15:06:59.587Z,97974.00
2023-03-17T15:09:38.001Z,97972.28
2023-03-17T15:12:26.206Z,97971.84
2023-03-17T15:14:58.267Z,97969.27
2023-03-17T15:17:33.094Z,97970.88
2023-03-17T15:20:13.042Z,97971.44
2023-03-17T15:22:47.959Z,97965.05
2023-03-17T15:25:33.456Z,97963.88
2023-03-17T15:28:01.336Z,97964.38
2023-03-17T15:30:37.371Z,97965.97
2023-03-17T15:33:02.761Z,97972.51
2023-03-17T15:35:31.687Z,97967.35
2023-03-17T15:37:59.340Z,97964.82
2023-03-17T15:40:27.069Z,97975.33
2023-03-17T15:42:54.638Z,97974.71
2023-03-17T15:45:22.286Z,97977.28
2023-03-17T15:47:49.957Z,97980.75
2023-03-17T15:50:26.001Z,97978.80
2023-03-17T15:52:55.433Z,97974.97
2023-03-17T15:55:30.635Z,97977.98
2023-03-17T15:58:00.154Z,97983.89
2023-03-17T16:00:29.094Z,97985.69
2023-03-17T16:03:02.172Z,97992.62
2023-03-17T16:05:33.613Z,97995.31
2023-03-17T16:08:01.788Z,98002.64
2023-03-17T16:10:32.212Z,97997.39
2023-03-17T16:13:00.088Z,98003.85
2023-03-17T16:15:31.831Z,97997.80
2023-03-17T16:18:03.623Z,98001.03
2023-03-17T16:20:44.836Z,98008.30
2023-03-17T16:23:16.827Z,98010.89
2023-03-17T16:25:45.579Z,98009.98
2023-03-17T16:28:23.938Z,98015.77
2023-03-17T16:30:54.156Z,98013.72
2023-03-17T16:33:32.774Z,98013.50
2023-03-17T16:36:01.007Z,98010.04
2023-03-17T16:38:32.308Z,98010.93
2023-03-17T16:41:07.271Z,98011.48
2023-03-17T16:43:38.124Z,98014.77
2023-03-17T16:46:07.214Z,98017.27
2023-03-17T16:48:35.256Z,98023.80
2023-03-17T16:51:04.100Z,98015.52
2023-03-17T16:53:31.648Z,98026.16
2023-03-17T16:55:59.762Z,98022.47
2023-03-17T16:58:36.272Z,98022.34
2023-03-17T17:01:14.840Z,98030.56
2023-03-17T17:03:44.081Z,98030.42
2023-03-17T17:06:16.428Z,98031.05
2023-03-17T17:08:45.747Z,98028.23
2023-03-17T17:11:15.300Z,98027.86
2023-03-17T17:13:46.396Z,98030.70
2023-03-17T17:16:28.318Z,98035.37
2023-03-17T17:18:56.786Z,98038.96
2023-03-17T17:21:25.790Z,98043.88
2023-03-17T17:23:53.757Z,98041.25
2023-03-17T17:26:22.456Z,98049.12
2023-03-17T17:28:50.558Z,98049.73
2023-03-17T17:31:18.320Z,98046.06
2023-03-17T17:33:46.134Z,98042.09
2023-03-17T17:36:16.292Z,98046.95
2023-03-17T17:38:45.903Z,98049.16
2023-03-17T17:41:15.967Z,98051.09
2023-03-17T17:43:45.706Z,98051.92
2023-03-17T17:46:18.922Z,98045.25
2023-03-17T17:48:47.811Z,98049.89
2023-03-17T17:51:16.038Z,98058.27
2023-03-17T17:53:44.189Z,98055.64
2023-03-17T17:56:17.219Z,98061.08
2023-03-17T17:58:45.288Z,98056.30
2023-03-17T18:01:15.217Z,98059.83
2023-03-17T18:03:43.097Z,98060.38
2023-03-17T18:06:12.644Z,98059.63
2023-03-17T18:08:42.844Z,98063.16
2023-03-17T18:11:11.429Z,98061.83
2023-03-17T18:13:39.692Z,98057.04
2023-03-17T18:16:09.439Z,98057.86
2023-03-17T18:18:38.968Z,98066.77
2023-03-17T18:21:07.706Z,98068.95
2023-03-17T18:23:36.175Z,98065.78
2023-03-17T18:26:05.729Z,98063.39
2023-03-17T18:28:33.495Z,98068.80
2023-03-17T18:31:10.106Z,98068.30
2023-03-17T18:33:40.364Z,98070.50
2023-03-17T18:36:08.945Z,98069.98
2023-03-17T18:38:37.522Z,98076.18
2023-03-17T18:41:07.657Z,98082.12
2023-03-17T18:43:35.515Z,98086.69
2023-03-17T18:46:03.779Z,98087.51
2023-03-17T18:48:31.577Z,98089.67
2023-03-17T18:50:59.107Z,98087.27
2023-03-17T18:53:27.325Z,98098.81
2023-03-17T18:55:56.908Z,98095.34
2023-03-17T18:58:25.105Z,98107.44
2023-03-17T19:01:01.342Z,98109.31
2023-03-17T19:03:31.599Z,98108.50
2023-03-17T19:06:10.291Z,98111.21
2023-03-17T19:08:38.149Z,98117.63
2023-03-17T19:11:11.647Z,98114.42
2023-03-17T19:13:39.591Z,98118.47
2023-03-17T19:16:08.952Z,98121.67
2023-03-17T19:18:40.272Z,98125.17
2023-03-17T19:21:09.182Z,98117.38
2023-03-17T19:23:37.863Z,98119.81
2023-03-17T19:26:07.068Z,98119.53
2023-03-17T19:28:34.765Z,98124.64
2023-03-17T19:31:02.345Z,98124.90
2023-03-17T19:33:31.884Z,98125.41
2023-03-17T19:36:01.955Z,98126.48
2023-03-17T19:38:29.845Z,98121.38
2023-03-17T19:40:57.774Z,98114.67
2023-03-17T19:43:39.350Z,98125.40
2023-03-17T19:45:56.919Z,98120.30
2023-03-17T19:48:24.885Z,98127.80
2023-03-17T19:50:52.668Z,98121.08
2023-03-17T19:53:20.446Z,98129.38
2023-03-17T19:55:48.258Z,98129.63
2023-03-17T19:58:17.066Z,98129.89
2023-03-17T20:00:45.185Z,98128.53
2023-03-17T20:03:14.439Z,98132.27
2023-03-17T20:05:44.719Z,98137.62
2023-03-17T20:08:14.017Z,98133.61
2023-03-17T20:10:41.832Z,98137.62
2023-03-17T20:13:09.887Z,98133.90
2023-03-17T20:15:37.879Z,98134.42
2023-03-17T20:18:05.671Z,98131.23
2023-03-17T20:20:33.722Z,98131.23
2023-03-17T20:23:01.663Z,98121.05
2023-03-17T20:25:29.410Z,98130.95
2023-03-17T20:27:57.133Z,98127.47
2023-03-17T20:30:24.902Z,98127.47
2023-03-17T20:32:52.436Z,98132.30
2023-03-17T20:35:20.395Z,98130.69
2023-03-17T20:37:47.929Z,98132.58
2023-03-17T20:40:15.663Z,98133.92
2023-03-17T20:42:43.838Z,98134.73
2023-03-17T20:45:11.470Z,98134.19
2023-03-17T20:47:40.586Z,98139.27
2023-03-17T20:50:09.748Z,98138.23
2023-03-17T20:52:37.652Z,98137.69
2023-03-17T20:55:07.914Z,98141.98
2023-03-17T20:57:36.289Z,98146.84
2023-03-17T21:00:05.012Z,98142.54
2023-03-17T21:02:32.669Z,98137.20
2023-03-17T21:05:00.440Z,98139.86
2023-03-17T21:07:28.115Z,98138.81
2023-03-17T21:09:56.235Z,98137.20
2023-03-17T21:12:24.174Z,98136.38
2023-03-17T21:14:52.861Z,98138.80
2023-03-17T21:17:22.264Z,98134.52
2023-03-17T21:19:50.400Z,98129.16
2023-03-17T21:22:18.130Z,98130.23
2023-03-17T21:24:46.119Z,98133.72
2023-03-17T21:27:13.854Z,98134.80
2023-03-17T21:29:41.532Z,98136.38
2023-03-17T21:32:09.873Z,98132.38
2023-03-17T21:34:37.871Z,98133.70
2023-03-17T21:37:05.787Z,98131.55
2023-03-17T21:39:33.600Z,98133.41
2023-03-17T21:42:01.598Z,98128.86
2023-03-17T21:44:29.604Z,98133.41
2023-03-17T21:46:57.481Z,98129.39
2023-03-17T21:49:25.493Z,98134.47
2023-03-17T21:51:54.295Z,98126.16
2023-03-17T21:54:22.165Z,98125.87
2023-03-17T21:56:50.529Z,98125.86
2023-03-17T21:59:20.178Z,98123.44
2023-03-17T22:01:49.990Z,98123.15
2023-03-17T22:04:17.790Z,98126.36
2023-03-17T22:06:45.779Z,98123.70
2023-03-17T22:09:19.076Z,98120.46
2023-03-17T22:11:46.274Z,98121.81
2023-03-17T22:14:15.957Z,98122.86
2023-03-17T22:16:43.668Z,98122.30
2023-03-17T22:19:12.103Z,98119.89
2023-03-17T22:21:40.165Z,98122.30
2023-03-17T22:24:08.645Z,98120.97
2023-03-17T22:26:36.435Z,98119.10
2023-03-17T22:29:04.539Z,98118.28
2023-03-17T22:31:32.323Z,98124.95
2023-03-17T22:34:00.650Z,98130.31
2023-03-17T22:36:29.742Z,98137.25
2023-03-17T22:38:58.101Z,98128.44
2023-03-17T22:41:29.167Z,98128.70
2023-03-17T22:43:57.823Z,98122.55
2023-03-17T22:46:25.507Z,98131.66
2023-03-17T22:48:53.450Z,98131.11
2023-03-17T22:51:26.023Z,98141.81
2023-03-17T22:53:54.278Z,98133.52
2023-03-17T22:56:22.312Z,98132.18
2023-03-17T22:58:49.743Z,98135.39
2023-03-17T23:01:19.790Z,98131.64
2023-03-17T23:03:47.876Z,98135.66
2023-03-17T23:06:15.663Z,98130.58
2023-03-17T23:08:45.287Z,98130.58
2023-03-17T23:11:21.760Z,98138.61
2023-03-17T23:13:50.923Z,98135.94
2023-03-17T23:16:19.816Z,98126.83
2023-03-17T23:18:47.988Z,98126.81
2023-03-17T23:21:29.314Z,98119.30
2023-03-17T23:23:57.744Z,98124.90
2023-03-17T23:26:25.373Z,98124.63
2023-03-17T23:28:53.560Z,98124.87
2023-03-17T23:31:22.046Z,98129.12
2023-03-17T23:33:50.786Z,98129.89
2023-03-17T23:36:19.065Z,98129.86
2023-03-17T23:38:48.207Z,98133.05
2023-03-17T23:41:16.971Z,98126.61
2023-03-17T23:43:46.290Z,98131.94
2023-03-17T23:46:14.223Z,98126.77
2023-03-17T23:48:43.066Z,98129.16
2023-03-17T23:51:13.746Z,98122.98
2023-03-17T23:53:41.761Z,98121.88
2023-03-17T23:56:12.517Z,98120.30
2023-03-17T23:58:42.737Z,98124.81
